sensor_id;sensor_type;location;lat;lon;timestamp;pressure;altitude;pressure_sealevel;temperature;humidity
15674;BME280;7937;48.090;16.212;2023-02-13T00:02:56;99803.50;;;0.84;75.61
15674;BME280;7937;48.090;16.212;2023-02-13T00:05:58;99798.50;;;0.81;75.41
15674;BME280;7937;48.090;16.212;2023-02-13T00:09:01;99793.03;;;0.73;75.02
15674;BME280;7937;48.090;16.212;2023-02-13T00:12:06;99796.81;;;0.59;75.33
15674;BME280;7937;48.090;16.212;2023-02-13T00:15:09;99757.81;;;0.34;75.24
15674;BME280;7937;48.090;16.212;2023-02-13T00:18:11;99810.69;;;0.50;75.54
15674;BME280;7937;48.090;16.212;2023-02-13T00:21:13;99804.59;;;0.49;75.31
15674;BME280;7937;48.090;16.212;2023-02-13T00:24:15;99803.28;;;0.44;75.25
15674;BME280;7937;48.090;16.212;2023-02-13T00:27:17;99798.84;;;0.23;75.77
15674;BME280;7937;48.090;16.212;2023-02-13T00:30:19;99801.81;;;0.19;75.72
15674;BME280;7937;48.090;16.212;2023-02-13T00:33:22;99799.19;;;0.19;75.90
15674;BME280;7937;48.090;16.212;2023-02-13T00:36:25;99804.91;;;0.24;75.68
15674;BME280;7937;48.090;16.212;2023-02-13T00:39:27;99807.66;;;0.22;75.92
15674;BME280;7937;48.090;16.212;2023-02-13T00:42:29;99788.28;;;0.03;75.85
15674;BME280;7937;48.090;16.212;2023-02-13T00:45:31;99817.81;;;0.16;75.87
15674;BME280;7937;48.090;16.212;2023-02-13T00:48:34;99814.84;;;0.09;76.21
15674;BME280;7937;48.090;16.212;2023-02-13T00:51:36;99800.78;;;-0.01;76.16
15674;BME280;7937;48.090;16.212;2023-02-13T00:54:38;99818.66;;;-0.06;76.10
15674;BME280;7937;48.090;16.212;2023-02-13T00:57:40;99807.72;;;-0.11;76.59
15674;BME280;7937;48.090;16.212;2023-02-13T01:00:45;99822.00;;;-0.15;76.96
15674;BME280;7937;48.090;16.212;2023-02-13T01:03:50;99822.13;;;-0.06;76.57
15674;BME280;7937;48.090;16.212;2023-02-13T01:06:52;99827.97;;;-0.02;76.79
15674;BME280;7937;48.090;16.212;2023-02-13T01:09:54;99817.13;;;0.03;76.39
15674;BME280;7937;48.090;16.212;2023-02-13T01:12:56;99810.56;;;0.08;76.72
15674;BME280;7937;48.090;16.212;2023-02-13T01:15:58;99808.53;;;0.12;77.12
15674;BME280;7937;48.090;16.212;2023-02-13T01:19:00;99807.91;;;0.19;76.99
15674;BME280;7937;48.090;16.212;2023-02-13T01:22:06;99809.59;;;0.20;77.17
15674;BME280;7937;48.090;16.212;2023-02-13T01:25:09;99805.03;;;0.22;77.25
15674;BME280;7937;48.090;16.212;2023-02-13T01:28:11;99811.56;;;0.28;77.21
15674;BME280;7937;48.090;16.212;2023-02-13T01:31:13;99759.00;;;-0.03;77.07
15674;BME280;7937;48.090;16.212;2023-02-13T01:34:15;99810.00;;;0.37;76.91
15674;BME280;7937;48.090;16.212;2023-02-13T01:37:17;99810.00;;;0.37;76.96
15674;BME280;7937;48.090;16.212;2023-02-13T01:40:20;99772.53;;;0.14;76.75
15674;BME280;7937;48.090;16.212;2023-02-13T01:43:22;99809.03;;;0.38;77.23
15674;BME280;7937;48.090;16.212;2023-02-13T01:46:36;99815.47;;;0.34;77.37
15674;BME280;7937;48.090;16.212;2023-02-13T01:49:39;99804.53;;;0.40;77.50
15674;BME280;7937;48.090;16.212;2023-02-13T01:52:47;99803.06;;;0.47;77.26
15674;BME280;7937;48.090;16.212;2023-02-13T01:56:14;99799.47;;;0.48;77.40
15674;BME280;7937;48.090;16.212;2023-02-13T01:59:23;99802.09;;;0.48;77.09
15674;BME280;7937;48.090;16.212;2023-02-13T02:02:27;99791.94;;;0.55;77.09
15674;BME280;7937;48.090;16.212;2023-02-13T02:05:34;99798.47;;;0.60;77.13
15674;BME280;7937;48.090;16.212;2023-02-13T02:08:37;99800.66;;;0.55;77.35
15674;BME280;7937;48.090;16.212;2023-02-13T02:12:11;99798.03;;;0.55;77.34
15674;BME280;7937;48.090;16.212;2023-02-13T02:15:15;99799.31;;;0.61;77.51
15674;BME280;7937;48.090;16.212;2023-02-13T02:18:20;99791.59;;;0.59;77.55
15674;BME280;7937;48.090;16.212;2023-02-13T02:21:42;99792.97;;;0.63;77.65
15674;BME280;7937;48.090;16.212;2023-02-13T02:25:23;99791.53;;;0.70;77.31
15674;BME280;7937;48.090;16.212;2023-02-13T02:35:46;99712.38;;;0.44;77.50
15674;BME280;7937;48.090;16.212;2023-02-13T02:39:17;99781.66;;;0.84;77.92
15674;BME280;7937;48.090;16.212;2023-02-13T02:42:38;99760.22;;;0.78;78.00
15674;BME280;7937;48.090;16.212;2023-02-13T02:45:49;99774.44;;;0.97;78.07
15674;BME280;7937;48.090;16.212;2023-02-13T02:48:57;99768.78;;;1.01;78.19
15674;BME280;7937;48.090;16.212;2023-02-13T02:52:42;99764.56;;;1.10;78.03
15674;BME280;7937;48.090;16.212;2023-02-13T02:55:59;99773.47;;;1.19;77.67
15674;BME280;7937;48.090;16.212;2023-02-13T02:59:09;99738.41;;;0.99;77.64
15674;BME280;7937;48.090;16.212;2023-02-13T03:02:33;99771.66;;;1.19;78.22
15674;BME280;7937;48.090;16.212;2023-02-13T03:05:54;99770.84;;;1.19;78.13
15674;BME280;7937;48.090;16.212;2023-02-13T03:09:18;99769.09;;;1.29;77.70
15674;BME280;7937;48.090;16.212;2023-02-13T03:12:50;99765.75;;;1.27;78.04
15674;BME280;7937;48.090;16.212;2023-02-13T03:16:19;99763.31;;;1.35;77.72
15674;BME280;7937;48.090;16.212;2023-02-13T03:19:43;99762.09;;;1.39;77.82
15674;BME280;7937;48.090;16.212;2023-02-13T03:29:58;99765.00;;;1.46;77.99
15674;BME280;7937;48.090;16.212;2023-02-13T03:36:57;99753.44;;;1.58;77.59
15674;BME280;7937;48.090;16.212;2023-02-13T03:40:35;99754.13;;;1.60;77.40
15674;BME280;7937;48.090;16.212;2023-02-13T03:44:30;99761.19;;;1.60;77.31
15674;BME280;7937;48.090;16.212;2023-02-13T03:47:08;99764.06;;;1.57;77.63
15674;BME280;7937;48.090;16.212;2023-02-13T03:50:12;99763.25;;;1.56;78.09
15674;BME280;7937;48.090;16.212;2023-02-13T03:53:16;99761.75;;;1.63;77.65
15674;BME280;7937;48.090;16.212;2023-02-13T03:56:19;99759.44;;;1.70;77.76
15674;BME280;7937;48.090;16.212;2023-02-13T03:59:41;99759.69;;;1.67;77.55
15674;BME280;7937;48.090;16.212;2023-02-13T04:03:19;99755.69;;;1.72;77.32
15674;BME280;7937;48.090;16.212;2023-02-13T04:06:31;99761.06;;;1.71;77.44
15674;BME280;7937;48.090;16.212;2023-02-13T04:09:38;99755.69;;;1.72;77.60
15674;BME280;7937;48.090;16.212;2023-02-13T04:16:15;99763.84;;;1.69;77.46
15674;BME280;7937;48.090;16.212;2023-02-13T04:19:19;99759.56;;;1.68;77.77
15674;BME280;7937;48.090;16.212;2023-02-13T04:22:21;99750.44;;;1.72;77.58
15674;BME280;7937;48.090;16.212;2023-02-13T04:25:23;99753.22;;;1.80;77.42
15674;BME280;7937;48.090;16.212;2023-02-13T04:28:25;99753.50;;;1.87;77.23
15674;BME280;7937;48.090;16.212;2023-02-13T04:31:27;99751.72;;;1.88;77.40
15674;BME280;7937;48.090;16.212;2023-02-13T04:34:30;99743.56;;;1.91;77.12
15674;BME280;7937;48.090;16.212;2023-02-13T04:37:32;99746.34;;;1.89;76.98
15674;BME280;7937;48.090;16.212;2023-02-13T04:40:34;99740.94;;;1.91;77.25
15674;BME280;7937;48.090;16.212;2023-02-13T04:43:35;99754.78;;;1.93;77.38
15674;BME280;7937;48.090;16.212;2023-02-13T04:46:38;99748.69;;;1.92;77.13
15674;BME280;7937;48.090;16.212;2023-02-13T04:49:40;99748.28;;;1.97;77.24
15674;BME280;7937;48.090;16.212;2023-02-13T04:52:42;99749.38;;;1.94;77.24
15674;BME280;7937;48.090;16.212;2023-02-13T04:55:44;99754.25;;;1.99;77.14
15674;BME280;7937;48.090;16.212;2023-02-13T04:58:46;99750.22;;;2.04;76.87
15674;BME280;7937;48.090;16.212;2023-02-13T05:01:48;99746.38;;;2.09;77.03
15674;BME280;7937;48.090;16.212;2023-02-13T05:04:49;99749.81;;;2.09;76.74
15674;BME280;7937;48.090;16.212;2023-02-13T05:07:52;99753.97;;;2.12;76.69
15674;BME280;7937;48.090;16.212;2023-02-13T05:10:54;99721.31;;;1.95;76.87
15674;BME280;7937;48.090;16.212;2023-02-13T05:13:56;99751.91;;;2.15;76.77
15674;BME280;7937;48.090;16.212;2023-02-13T05:16:58;99749.28;;;2.15;76.77
15674;BME280;7937;48.090;16.212;2023-02-13T05:20:00;99747.47;;;2.06;77.11
15674;BME280;7937;48.090;16.212;2023-02-13T05:23:02;99752.03;;;2.14;77.09
15674;BME280;7937;48.090;16.212;2023-02-13T05:26:23;99748.19;;;2.18;76.91
15674;BME280;7937;48.090;16.212;2023-02-13T05:29:25;99726.31;;;2.08;76.66
15674;BME280;7937;48.090;16.212;2023-02-13T05:32:27;99746.22;;;2.20;76.93
15674;BME280;7937;48.090;16.212;2023-02-13T05:35:29;99749.97;;;2.17;76.75
15674;BME280;7937;48.090;16.212;2023-02-13T05:38:31;99750.81;;;2.18;76.73
15674;BME280;7937;48.090;16.212;2023-02-13T05:41:33;99683.25;;;1.79;76.72
15674;BME280;7937;48.090;16.212;2023-02-13T05:44:35;99748.72;;;2.21;76.61
15674;BME280;7937;48.090;16.212;2023-02-13T05:47:37;99750.09;;;2.16;76.91
15674;BME280;7937;48.090;16.212;2023-02-13T05:50:39;99755.09;;;2.19;77.28
15674;BME280;7937;48.090;16.212;2023-02-13T05:53:41;99740.97;;;2.10;77.01
15674;BME280;7937;48.090;16.212;2023-02-13T05:56:43;99756.91;;;2.28;76.66
15674;BME280;7937;48.090;16.212;2023-02-13T05:59:45;99765.22;;;2.23;76.83
15674;BME280;7937;48.090;16.212;2023-02-13T06:02:47;99762.03;;;2.29;77.05
15674;BME280;7937;48.090;16.212;2023-02-13T06:05:49;99769.66;;;2.32;77.08
15674;BME280;7937;48.090;16.212;2023-02-13T06:08:51;99763.66;;;2.30;76.93
15674;BME280;7937;48.090;16.212;2023-02-13T06:11:53;99770.31;;;2.35;76.77
15674;BME280;7937;48.090;16.212;2023-02-13T06:14:55;99769.09;;;2.39;76.64
15674;BME280;7937;48.090;16.212;2023-02-13T06:17:57;99768.94;;;2.40;76.70
15674;BME280;7937;48.090;16.212;2023-02-13T06:21:00;99768.25;;;2.38;76.48
15674;BME280;7937;48.090;16.212;2023-02-13T06:24:05;99770.06;;;2.38;76.54
15674;BME280;7937;48.090;16.212;2023-02-13T06:27:08;99775.75;;;2.43;76.75
15674;BME280;7937;48.090;16.212;2023-02-13T06:30:10;99776.16;;;2.48;76.62
15674;BME280;7937;48.090;16.212;2023-02-13T06:33:12;99773.94;;;2.43;76.41
15674;BME280;7937;48.090;16.212;2023-02-13T06:36:14;99778.06;;;2.46;76.78
15674;BME280;7937;48.090;16.212;2023-02-13T06:39:17;99780.44;;;2.49;76.70
15674;BME280;7937;48.090;16.212;2023-02-13T06:42:18;99778.50;;;2.51;76.64
15674;BME280;7937;48.090;16.212;2023-02-13T06:45:21;99787.09;;;2.53;76.71
15674;BME280;7937;48.090;16.212;2023-02-13T06:48:23;99785.97;;;2.55;76.36
15674;BME280;7937;48.090;16.212;2023-02-13T06:51:25;99779.88;;;2.55;76.65
15674;BME280;7937;48.090;16.212;2023-02-13T06:54:27;99777.81;;;2.58;76.80
15674;BME280;7937;48.090;16.212;2023-02-13T06:57:47;99774.63;;;2.65;76.82
15674;BME280;7937;48.090;16.212;2023-02-13T07:00:50;99785.84;;;2.67;76.58
15674;BME280;7937;48.090;16.212;2023-02-13T07:03:53;99776.84;;;2.69;76.56
15674;BME280;7937;48.090;16.212;2023-02-13T07:06:56;99786.13;;;2.73;76.42
15674;BME280;7937;48.090;16.212;2023-02-13T07:09:59;99787.19;;;2.80;76.41
15674;BME280;7937;48.090;16.212;2023-02-13T07:13:01;99786.09;;;2.83;76.15
15674;BME280;7937;48.090;16.212;2023-02-13T07:16:06;99788.59;;;2.84;76.33
15674;BME280;7937;48.090;16.212;2023-02-13T07:19:09;99788.16;;;2.89;76.33
15674;BME280;7937;48.090;16.212;2023-02-13T07:22:11;99794.81;;;2.93;76.14
15674;BME280;7937;48.090;16.212;2023-02-13T07:25:14;99796.88;;;2.99;75.96
15674;BME280;7937;48.090;16.212;2023-02-13T07:28:16;99804.38;;;2.94;76.35
15674;BME280;7937;48.090;16.212;2023-02-13T07:31:18;99801.88;;;3.02;76.10
15674;BME280;7937;48.090;16.212;2023-02-13T07:34:20;99797.69;;;3.09;76.13
15674;BME280;7937;48.090;16.212;2023-02-13T07:37:23;99805.06;;;3.16;75.95
15674;BME280;7937;48.090;16.212;2023-02-13T07:40:25;99806.28;;;3.21;75.90
15674;BME280;7937;48.090;16.212;2023-02-13T07:43:27;99804.31;;;3.23;75.66
15674;BME280;7937;48.090;16.212;2023-02-13T07:46:29;99806.94;;;3.33;75.91
15674;BME280;7937;48.090;16.212;2023-02-13T07:49:32;99808.16;;;3.39;75.28
15674;BME280;7937;48.090;16.212;2023-02-13T07:52:34;99812.03;;;3.34;75.62
15674;BME280;7937;48.090;16.212;2023-02-13T07:55:38;99809.41;;;3.34;75.72
15674;BME280;7937;48.090;16.212;2023-02-13T07:58:40;99806.22;;;3.41;75.45
15674;BME280;7937;48.090;16.212;2023-02-13T08:01:42;99809.94;;;3.48;75.25
15674;BME280;7937;48.090;16.212;2023-02-13T08:04:44;99794.56;;;3.43;74.94
15674;BME280;7937;48.090;16.212;2023-02-13T08:07:49;99816.66;;;3.70;74.81
15674;BME280;7937;48.090;16.212;2023-02-13T08:10:51;99809.16;;;3.75;74.63
15674;BME280;7937;48.090;16.212;2023-02-13T08:14:11;99809.13;;;3.84;74.42
15674;BME280;7937;48.090;16.212;2023-02-13T08:17:13;99813.91;;;3.89;74.27
15674;BME280;7937;48.090;16.212;2023-02-13T08:20:15;99815.59;;;3.90;74.50
15674;BME280;7937;48.090;16.212;2023-02-13T08:23:17;99812.09;;;3.99;74.31
15674;BME280;7937;48.090;16.212;2023-02-13T08:26:20;99813.75;;;4.00;73.97
15674;BME280;7937;48.090;16.212;2023-02-13T08:29:22;99817.31;;;4.09;74.24
15674;BME280;7937;48.090;16.212;2023-02-13T08:32:24;99813.25;;;4.14;73.80
15674;BME280;7937;48.090;16.212;2023-02-13T08:35:26;99811.13;;;4.18;73.85
15674;BME280;7937;48.090;16.212;2023-02-13T08:38:32;99815.28;;;4.21;73.74
15674;BME280;7937;48.090;16.212;2023-02-13T08:41:34;99814.31;;;4.22;73.75
15674;BME280;7937;48.090;16.212;2023-02-13T08:44:36;99775.69;;;4.03;73.66
15674;BME280;7937;48.090;16.212;2023-02-13T08:47:41;99814.91;;;4.33;73.51
15674;BME280;7937;48.090;16.212;2023-02-13T08:50:43;99810.56;;;4.42;73.50
15674;BME280;7937;48.090;16.212;2023-02-13T08:53:45;99803.84;;;4.48;73.31
15674;BME280;7937;48.090;16.212;2023-02-13T08:56:47;99816.75;;;4.51;73.25
15674;BME280;7937;48.090;16.212;2023-02-13T08:59:49;99805.91;;;4.54;73.22
15674;BME280;7937;48.090;16.212;2023-02-13T09:02:51;99809.59;;;4.61;72.83
15674;BME280;7937;48.090;16.212;2023-02-13T09:05:57;99811.16;;;4.72;72.86
15674;BME280;7937;48.090;16.212;2023-02-13T09:09:00;99813.97;;;4.70;72.70
15674;BME280;7937;48.090;16.212;2023-02-13T09:12:02;99816.81;;;4.77;72.22
15674;BME280;7937;48.090;16.212;2023-02-13T09:15:04;99822.63;;;4.98;72.01
15674;BME280;7937;48.090;16.212;2023-02-13T09:18:06;99813.09;;;5.05;71.21
15674;BME280;7937;48.090;16.212;2023-02-13T09:21:11;99817.00;;;5.19;70.99
15674;BME280;7937;48.090;16.212;2023-02-13T09:24:13;99811.78;;;5.27;70.72
15674;BME280;7937;48.090;16.212;2023-02-13T09:27:15;99817.91;;;5.36;70.07
15674;BME280;7937;48.090;16.212;2023-02-13T09:30:17;99810.06;;;5.44;70.05
15674;BME280;7937;48.090;16.212;2023-02-13T09:33:25;99811.94;;;5.52;69.80
15674;BME280;7937;48.090;16.212;2023-02-13T09:36:27;99835.91;;;5.58;69.19
15674;BME280;7937;48.090;16.212;2023-02-13T09:39:29;99821.75;;;5.67;68.82
15674;BME280;7937;48.090;16.212;2023-02-13T09:42:33;99826.75;;;5.79;68.46
15674;BME280;7937;48.090;16.212;2023-02-13T09:45:38;99830.22;;;5.79;67.87
15674;BME280;7937;48.090;16.212;2023-02-13T09:48:42;99828.28;;;5.81;67.81
15674;BME280;7937;48.090;16.212;2023-02-13T09:51:50;99829.41;;;5.79;67.58
15674;BME280;7937;48.090;16.212;2023-02-13T09:54:55;99830.22;;;5.79;67.47
15674;BME280;7937;48.090;16.212;2023-02-13T10:01:32;99833.72;;;5.80;67.81
15674;BME280;7937;48.090;16.212;2023-02-13T10:04:55;99804.03;;;5.60;67.59
15674;BME280;7937;48.090;16.212;2023-02-13T10:11:38;99840.88;;;5.87;67.45
15674;BME280;7937;48.090;16.212;2023-02-13T10:17:41;99838.53;;;5.84;67.83
15674;BME280;7937;48.090;16.212;2023-02-13T10:20:53;99846.81;;;5.89;67.68
15674;BME280;7937;48.090;16.212;2023-02-13T10:24:03;99842.25;;;6.00;67.59
15674;BME280;7937;48.090;16.212;2023-02-13T10:30:25;99844.00;;;5.91;67.31
15674;BME280;7937;48.090;16.212;2023-02-13T10:33:37;99841.63;;;5.80;67.96
15674;BME280;7937;48.090;16.212;2023-02-13T10:36:45;99836.81;;;5.75;67.79
15674;BME280;7937;48.090;16.212;2023-02-13T10:39:50;99838.69;;;5.83;67.91
15674;BME280;7937;48.090;16.212;2023-02-13T10:43:07;99825.66;;;5.89;67.59
15674;BME280;7937;48.090;16.212;2023-02-13T10:46:41;99819.91;;;5.94;67.23
15674;BME280;7937;48.090;16.212;2023-02-13T10:56:38;99787.03;;;5.70;67.92
15674;BME280;7937;48.090;16.212;2023-02-13T11:03:23;99804.09;;;6.10;67.32
15674;BME280;7937;48.090;16.212;2023-02-13T11:06:25;99802.66;;;6.16;66.74
15674;BME280;7937;48.090;16.212;2023-02-13T11:09:30;99792.84;;;6.08;66.17
15674;BME280;7937;48.090;16.212;2023-02-13T11:12:34;99794.88;;;6.23;65.88
15674;BME280;7937;48.090;16.212;2023-02-13T11:15:36;99794.06;;;6.30;65.50
15674;BME280;7937;48.090;16.212;2023-02-13T11:18:40;99788.63;;;6.32;64.64
15674;BME280;7937;48.090;16.212;2023-02-13T11:21:46;99794.78;;;6.57;64.74
15674;BME280;7937;48.090;16.212;2023-02-13T11:24:52;99769.78;;;6.59;63.74
15674;BME280;7937;48.090;16.212;2023-02-13T11:28:07;99789.16;;;6.76;63.70
15674;BME280;7937;48.090;16.212;2023-02-13T11:31:18;99789.00;;;6.78;62.60
15674;BME280;7937;48.090;16.212;2023-02-13T11:34:25;99786.00;;;6.72;62.01
15674;BME280;7937;48.090;16.212;2023-02-13T11:37:29;99786.84;;;6.81;62.07
15674;BME280;7937;48.090;16.212;2023-02-13T11:40:32;99780.56;;;6.90;61.34
15674;BME280;7937;48.090;16.212;2023-02-13T11:43:46;99785.19;;;7.05;61.07
15674;BME280;7937;48.090;16.212;2023-02-13T11:46:51;99779.72;;;7.14;60.59
15674;BME280;7937;48.090;16.212;2023-02-13T11:49:54;99781.00;;;7.27;60.24
15674;BME280;7937;48.090;16.212;2023-02-13T11:53:13;99776.56;;;7.11;60.01
15674;BME280;7937;48.090;16.212;2023-02-13T11:56:19;99793.47;;;7.02;60.73
15674;BME280;7937;48.090;16.212;2023-02-13T11:59:23;99783.34;;;7.13;59.90
15674;BME280;7937;48.090;16.212;2023-02-13T12:02:42;99780.88;;;6.95;61.26
15674;BME280;7937;48.090;16.212;2023-02-13T12:06:16;99783.03;;;6.92;60.66
15674;BME280;7937;48.090;16.212;2023-02-13T12:09:19;99773.91;;;7.03;60.49
15674;BME280;7937;48.090;16.212;2023-02-13T12:12:42;99753.56;;;6.95;60.23
15674;BME280;7937;48.090;16.212;2023-02-13T12:15:45;99769.47;;;6.95;60.35
15674;BME280;7937;48.090;16.212;2023-02-13T12:18:53;99775.75;;;6.86;60.34
15674;BME280;7937;48.090;16.212;2023-02-13T12:25:22;99761.00;;;6.59;60.25
15674;BME280;7937;48.090;16.212;2023-02-13T12:32:16;99748.28;;;6.62;59.85
15674;BME280;7937;48.090;16.212;2023-02-13T12:35:39;99741.31;;;6.78;59.54
15674;BME280;7937;48.090;16.212;2023-02-13T12:39:17;99738.19;;;6.66;59.67
15674;BME280;7937;48.090;16.212;2023-02-13T12:45:39;99717.16;;;6.56;59.00
15674;BME280;7937;48.090;16.212;2023-02-13T12:48:59;99729.41;;;6.82;59.26
15674;BME280;7937;48.090;16.212;2023-02-13T13:05:27;99721.75;;;7.03;57.98
15674;BME280;7937;48.090;16.212;2023-02-13T13:18:50;99732.47;;;7.26;57.07
15674;BME280;7937;48.090;16.212;2023-02-13T13:28:16;99736.44;;;7.30;56.98
15674;BME280;7937;48.090;16.212;2023-02-13T13:31:21;99738.41;;;7.28;56.80
15674;BME280;7937;48.090;16.212;2023-02-13T13:34:28;99736.44;;;7.22;56.86
15674;BME280;7937;48.090;16.212;2023-02-13T13:37:42;99729.69;;;7.19;56.75
15674;BME280;7937;48.090;16.212;2023-02-13T13:41:00;99742.06;;;7.19;56.68
15674;BME280;7937;48.090;16.212;2023-02-13T13:50:57;99731.63;;;7.26;56.86
15674;BME280;7937;48.090;16.212;2023-02-13T14:03:33;99729.81;;;7.26;57.15
15674;BME280;7937;48.090;16.212;2023-02-13T14:09:45;99714.84;;;7.41;56.71
15674;BME280;7937;48.090;16.212;2023-02-13T14:15:56;99688.56;;;7.23;55.99
15674;BME280;7937;48.090;16.212;2023-02-13T14:18:58;99723.19;;;7.30;55.88
15674;BME280;7937;48.090;16.212;2023-02-13T14:22:31;99713.41;;;7.31;56.05
15674;BME280;7937;48.090;16.212;2023-02-13T14:25:36;99712.88;;;7.35;56.31
15674;BME280;7937;48.090;16.212;2023-02-13T14:32:06;99715.88;;;7.24;55.70
15674;BME280;7937;48.090;16.212;2023-02-13T14:35:22;99720.53;;;7.22;55.33
15674;BME280;7937;48.090;16.212;2023-02-13T14:38:26;99719.09;;;7.03;55.88
15674;BME280;7937;48.090;16.212;2023-02-13T14:44:50;99718.91;;;7.13;55.79
15674;BME280;7937;48.090;16.212;2023-02-13T14:47:56;99715.44;;;7.04;55.96
15674;BME280;7937;48.090;16.212;2023-02-13T14:50:58;99712.63;;;7.06;55.77
15674;BME280;7937;48.090;16.212;2023-02-13T14:57:49;99718.59;;;7.08;55.87
15674;BME280;7937;48.090;16.212;2023-02-13T15:00:56;99709.94;;;7.14;55.84
15674;BME280;7937;48.090;16.212;2023-02-13T15:04:21;99718.63;;;7.00;55.89
15674;BME280;7937;48.090;16.212;2023-02-13T15:07:29;99710.00;;;6.97;55.98
15674;BME280;7937;48.090;16.212;2023-02-13T15:10:40;99705.69;;;6.96;56.42
15674;BME280;7937;48.090;16.212;2023-02-13T15:13:43;99709.34;;;6.95;56.05
15674;BME280;7937;48.090;16.212;2023-02-13T15:17:12;99704.88;;;6.96;55.63
15674;BME280;7937;48.090;16.212;2023-02-13T15:20:22;99678.06;;;6.83;55.31
15674;BME280;7937;48.090;16.212;2023-02-13T15:23:28;99695.75;;;6.98;55.65
15674;BME280;7937;48.090;16.212;2023-02-13T15:26:31;99693.44;;;6.95;56.12
15674;BME280;7937;48.090;16.212;2023-02-13T15:29:33;99696.25;;;6.94;56.61
15674;BME280;7937;48.090;16.212;2023-02-13T15:36:06;99694.63;;;6.85;56.08
15674;BME280;7937;48.090;16.212;2023-02-13T15:39:15;99695.47;;;6.85;56.20
15674;BME280;7937;48.090;16.212;2023-02-13T15:42:20;99689.47;;;6.83;56.36
15674;BME280;7937;48.090;16.212;2023-02-13T15:45:25;99689.66;;;6.82;56.68
15674;BME280;7937;48.090;16.212;2023-02-13T15:48:30;99698.09;;;6.77;57.01
15674;BME280;7937;48.090;16.212;2023-02-13T15:51:33;99699.09;;;6.76;56.40
15674;BME280;7937;48.090;16.212;2023-02-13T15:54:47;99698.09;;;6.69;57.45
15674;BME280;7937;48.090;16.212;2023-02-13T15:57:50;99691.47;;;6.65;57.81
15674;BME280;7937;48.090;16.212;2023-02-13T16:00:55;99694.47;;;6.62;57.68
15674;BME280;7937;48.090;16.212;2023-02-13T16:04:05;99692.84;;;6.61;57.85
15674;BME280;7937;48.090;16.212;2023-02-13T16:07:12;99697.63;;;6.49;58.69
15674;BME280;7937;48.090;16.212;2023-02-13T16:10:33;99703.91;;;6.40;59.15
15674;BME280;7937;48.090;16.212;2023-02-13T16:13:35;99696.47;;;6.27;59.20
15674;BME280;7937;48.090;16.212;2023-02-13T16:17:00;99700.59;;;6.30;59.59
15674;BME280;7937;48.090;16.212;2023-02-13T16:23:20;99707.22;;;6.17;59.67
15674;BME280;7937;48.090;16.212;2023-02-13T16:26:23;99699.25;;;6.09;60.17
15674;BME280;7937;48.090;16.212;2023-02-13T16:29:26;99718.59;;;6.10;60.38
15674;BME280;7937;48.090;16.212;2023-02-13T16:32:32;99715.59;;;6.05;60.74
15674;BME280;7937;48.090;16.212;2023-02-13T16:35:42;99703.16;;;5.89;60.92
15674;BME280;7937;48.090;16.212;2023-02-13T16:38:50;99632.97;;;5.44;61.10
15674;BME280;7937;48.090;16.212;2023-02-13T16:41:52;99711.91;;;5.89;61.51
15674;BME280;7937;48.090;16.212;2023-02-13T16:45:20;99717.00;;;5.75;62.12
15674;BME280;7937;48.090;16.212;2023-02-13T16:48:24;99706.06;;;5.69;62.14
15674;BME280;7937;48.090;16.212;2023-02-13T16:51:36;99707.38;;;5.65;62.55
15674;BME280;7937;48.090;16.212;2023-02-13T16:57:45;99718.41;;;5.53;62.76
15674;BME280;7937;48.090;16.212;2023-02-13T17:00:51;99710.97;;;5.56;62.63
15674;BME280;7937;48.090;16.212;2023-02-13T17:03:54;99714.47;;;5.57;63.08
15674;BME280;7937;48.090;16.212;2023-02-13T17:06:57;99704.19;;;5.54;63.20
15674;BME280;7937;48.090;16.212;2023-02-13T17:10:20;99707.50;;;5.48;63.29
15674;BME280;7937;48.090;16.212;2023-02-13T17:13:24;99710.97;;;5.48;63.68
15674;BME280;7937;48.090;16.212;2023-02-13T17:16:28;99701.22;;;5.49;63.54
15674;BME280;7937;48.090;16.212;2023-02-13T17:19:30;99706.44;;;5.40;63.97
15674;BME280;7937;48.090;16.212;2023-02-13T17:22:39;99700.16;;;5.41;63.70
15674;BME280;7937;48.090;16.212;2023-02-13T17:25:47;99705.28;;;5.35;64.40
15674;BME280;7937;48.090;16.212;2023-02-13T17:28:52;99707.03;;;5.26;64.57
15674;BME280;7937;48.090;16.212;2023-02-13T17:31:55;99706.56;;;5.23;64.35
15674;BME280;7937;48.090;16.212;2023-02-13T17:34:58;99704.03;;;5.13;64.63
15674;BME280;7937;48.090;16.212;2023-02-13T17:38:02;99696.41;;;5.10;64.96
15674;BME280;7937;48.090;16.212;2023-02-13T17:41:13;99691.78;;;5.12;64.86
15674;BME280;7937;48.090;16.212;2023-02-13T17:44:16;99687.13;;;5.06;64.98
15674;BME280;7937;48.090;16.212;2023-02-13T17:47:20;99648.31;;;4.72;65.13
15674;BME280;7937;48.090;16.212;2023-02-13T17:50:24;99695.97;;;4.97;65.35
15674;BME280;7937;48.090;16.212;2023-02-13T17:53:29;99650.75;;;4.65;65.44
15674;BME280;7937;48.090;16.212;2023-02-13T17:56:33;99690.91;;;4.77;65.96
15674;BME280;7937;48.090;16.212;2023-02-13T17:59:36;99690.91;;;4.77;66.07
15674;BME280;7937;48.090;16.212;2023-02-13T18:02:40;99694.91;;;4.81;66.22
15674;BME280;7937;48.090;16.212;2023-02-13T18:05:47;99696.19;;;4.77;66.04
15674;BME280;7937;48.090;16.212;2023-02-13T18:08:50;99686.25;;;4.71;66.53
15674;BME280;7937;48.090;16.212;2023-02-13T18:11:54;99683.41;;;4.64;66.48
15674;BME280;7937;48.090;16.212;2023-02-13T18:15:07;99684.53;;;4.62;66.98
15674;BME280;7937;48.090;16.212;2023-02-13T18:18:11;99676.13;;;4.58;66.91
15674;BME280;7937;48.090;16.212;2023-02-13T18:21:14;99661.66;;;4.45;66.60
15674;BME280;7937;48.090;16.212;2023-02-13T18:24:18;99667.44;;;4.48;66.95
15674;BME280;7937;48.090;16.212;2023-02-13T18:27:21;99671.38;;;4.44;67.36
15674;BME280;7937;48.090;16.212;2023-02-13T18:30:27;99660.16;;;4.42;67.17
15674;BME280;7937;48.090;16.212;2023-02-13T18:33:30;99655.69;;;4.43;67.08
15674;BME280;7937;48.090;16.212;2023-02-13T18:36:33;99649.38;;;4.35;67.04
15674;BME280;7937;48.090;16.212;2023-02-13T18:39:36;99649.38;;;4.35;67.51
15674;BME280;7937;48.090;16.212;2023-02-13T18:42:38;99639.94;;;4.33;67.32
15674;BME280;7937;48.090;16.212;2023-02-13T18:45:45;99640.56;;;4.27;67.22
15674;BME280;7937;48.090;16.212;2023-02-13T18:48:49;99635.09;;;4.20;67.55
15674;BME280;7937;48.090;16.212;2023-02-13T18:51:53;99639.63;;;4.10;67.76